Time;durP1;ratioP1;P1;durP2;ratioP2;P2;SDS_P1;SDS_P2;PMS_P1;PMS_P2;Temp;Humidity;BMP_temperature;BMP_pressure;BME280_temperature;BME280_humidity;BME280_pressure;Samples;Min_cycle;Max_cycle;Signal;HPM_P1;HPM_P2
2022/02/28 00:01:03;;;;;;;31.50;12.45;;;;;;;4.13;72.81;102117.28;1820604;79;21506;-61
2022/02/28 00:03:33;;;;;;;33.80;13.45;;;;;;;4.12;72.81;102108.14;1812428;78;21065;-61
2022/02/28 00:06:02;;;;;;;38.10;15.32;;;;;;;4.10;72.87;102106.81;1819899;79;21561;-60
2022/02/28 00:08:31;;;;;;;36.23;13.55;;;;;;;4.10;72.88;102102.91;1819041;79;21119;-61
2022/02/28 00:11:00;;;;;;;31.55;13.10;;;;;;;4.09;72.97;102102.45;1820474;79;21530;-62
2022/02/28 00:13:29;;;;;;;30.35;13.08;;;;;;;4.06;73.03;102095.92;1820627;79;21040;-62
2022/02/28 00:15:57;;;;;;;34.05;14.00;;;;;;;4.06;73.08;102098.53;1820771;79;21118;-61
2022/02/28 00:18:27;;;;;;;38.17;13.80;;;;;;;4.06;73.07;102085.50;1820711;79;21134;-62
2022/02/28 00:20:55;;;;;;;50.33;16.70;;;;;;;4.04;73.07;102088.52;1820772;79;21541;-62
2022/02/28 00:23:24;;;;;;;35.78;14.05;;;;;;;4.05;73.08;102090.25;1822711;77;21008;-63
2022/02/28 00:25:53;;;;;;;32.23;12.28;;;;;;;4.04;73.07;102079.40;1849592;77;21017;-62
2022/02/28 00:28:22;;;;;;;37.23;12.85;;;;;;;4.06;73.05;102068.55;1837218;77;21596;-61
2022/02/28 00:30:51;;;;;;;41.37;13.85;;;;;;;4.06;73.04;102068.55;1813814;79;21560;-61
2022/02/28 00:33:20;;;;;;;32.93;12.82;;;;;;;4.03;73.10;102069.81;1838732;77;21090;-61
2022/02/28 00:35:49;;;;;;;28.00;10.38;;;;;;;4.02;73.14;102069.36;1851178;77;21033;-62
2022/02/28 00:38:17;;;;;;;30.10;10.13;;;;;;;4.01;73.18;102061.11;1851141;77;21570;-63
2022/02/28 00:40:46;;;;;;;40.70;15.48;;;;;;;3.98;73.25;102063.69;1849910;77;21476;-63
2022/02/28 00:43:15;;;;;;;37.38;13.80;;;;;;;3.97;73.26;102059.34;1851118;77;21036;-61
2022/02/28 00:45:44;;;;;;;34.23;13.25;;;;;;;3.97;73.25;102060.21;1851121;77;21069;-60
2022/02/28 00:48:12;;;;;;;40.38;12.47;;;;;;;3.97;73.27;102048.92;1833187;77;21078;-61
2022/02/28 00:50:43;;;;;;;35.92;13.85;;;;;;;3.95;73.34;102043.69;1815693;79;21086;-61
2022/02/28 00:53:11;;;;;;;33.13;12.23;;;;;;;3.96;73.35;102047.16;1814263;77;21466;-61
2022/02/28 00:55:40;;;;;;;24.50;9.00;;;;;;;3.95;73.36;102048.03;1820754;79;21431;-60
2022/02/28 00:58:09;;;;;;;34.20;13.05;;;;;;;3.96;73.38;102044.55;1820682;79;21040;-61
2022/02/28 01:00:39;;;;;;;30.70;11.75;;;;;;;3.95;73.36;102045.43;1820777;79;21187;-60
2022/02/28 01:03:09;;;;;;;31.20;12.00;;;;;;;3.94;73.40;102047.14;1820715;79;21545;-62
2022/02/28 01:05:38;;;;;;;31.82;11.55;;;;;;;3.94;73.39;102039.76;1819174;79;21457;-63
2022/02/28 01:08:06;;;;;;;36.38;14.65;;;;;;;3.94;73.44;102039.76;1813850;79;21063;-62
2022/02/28 01:10:35;;;;;;;30.92;11.50;;;;;;;3.93;73.48;102045.41;1813802;79;21071;-63
2022/02/28 01:13:10;;;;;;;27.35;11.18;;;;;;;3.93;73.48;102039.30;1813841;79;21098;-63
2022/02/28 01:15:35;;;;;;;31.87;13.28;;;;;;;3.92;73.48;102034.53;1813436;79;21058;-63
2022/02/28 01:18:04;;;;;;;37.05;12.60;;;;;;;3.91;73.52;102038.42;1819291;79;21110;-64
2022/02/28 01:20:33;;;;;;;29.50;12.18;;;;;;;3.91;73.52;102039.72;1820743;79;21060;-62
2022/02/28 01:23:02;;;;;;;33.15;10.68;;;;;;;3.93;73.51;102035.39;1820744;79;21530;-62
2022/02/28 01:25:31;;;;;;;26.33;9.93;;;;;;;3.91;73.56;102029.30;1820923;79;21595;-60
2022/02/28 01:28:00;;;;;;;32.28;12.75;;;;;;;3.89;73.61;102030.58;1820828;79;21032;-62
2022/02/28 01:30:29;;;;;;;34.67;14.53;;;;;;;3.90;73.61;102032.78;1820762;78;21060;-62
2022/02/28 01:32:58;;;;;;;34.67;13.40;;;;;;;3.89;73.62;102029.72;1827364;76;21668;-62
2022/02/28 01:35:26;;;;;;;35.70;13.38;;;;;;;3.92;73.60;102032.36;1852592;77;21083;-62
2022/02/28 01:37:55;;;;;;;39.38;14.58;;;;;;;3.92;73.62;102028.45;1852720;77;21539;-62
2022/02/28 01:40:25;;;;;;;50.12;16.82;;;;;;;3.93;73.59;102020.66;1852664;77;21124;-62
2022/02/28 01:42:54;;;;;;;50.00;15.60;;;;;;;3.94;73.58;102022.83;1852519;77;21124;-60
2022/02/28 01:45:23;;;;;;;46.30;15.60;;;;;;;3.97;73.53;102024.16;1852470;77;21105;-62
2022/02/28 01:47:55;;;;;;;44.03;15.75;;;;;;;3.99;73.50;102036.77;1852603;77;21198;-62
2022/02/28 01:50:26;;;;;;;42.75;14.73;;;;;;;3.99;73.44;102028.52;1852700;77;21154;-62
2022/02/28 01:52:55;;;;;;;46.05;15.00;;;;;;;4.01;73.44;102025.49;1852532;77;21539;-60
2022/02/28 01:55:26;;;;;;;33.30;13.75;;;;;;;4.00;73.41;102018.95;1852575;77;21479;-61
2022/02/28 01:57:55;;;;;;;43.70;14.20;;;;;;;3.99;73.49;102015.92;1852422;77;21076;-61
2022/02/28 02:00:27;;;;;;;34.20;14.07;;;;;;;3.95;73.57;102011.55;1852685;77;21060;-60
2022/02/28 02:02:56;;;;;;;42.35;12.93;;;;;;;3.92;73.67;102015.42;1852625;77;21546;-59
2022/02/28 02:05:25;;;;;;;36.73;13.93;;;;;;;3.89;73.74;102016.69;1852747;77;21056;-60
2022/02/28 02:07:54;;;;;;;36.28;14.20;;;;;;;3.90;73.74;102015.84;1852537;77;21475;-60
2022/02/28 02:10:22;;;;;;;27.10;11.25;;;;;;;3.90;73.73;102006.28;1852526;77;21079;-62
2022/02/28 02:12:54;;;;;;;39.78;14.85;;;;;;;3.91;73.75;102008.05;1903380;74;21102;-60
2022/02/28 02:15:22;;;;;;;48.65;15.53;;;;;;;3.91;73.74;102007.15;1912091;75;21529;-60
2022/02/28 02:17:53;;;;;;;44.85;16.73;;;;;;;3.91;73.77;102000.23;1888917;75;21051;-60
2022/02/28 02:20:25;;;;;;;42.13;15.50;;;;;;;3.89;73.82;101991.49;1879657;76;21016;-60
2022/02/28 02:23:02;;;;;;;39.92;15.13;;;;;;;3.90;73.82;101991.09;1879590;76;21114;-61
2022/02/28 02:25:31;;;;;;;47.25;15.08;;;;;;;3.91;73.89;101979.78;1878400;76;21068;-60
2022/02/28 02:28:00;;;;;;;55.12;16.87;;;;;;;3.90;73.86;101975.02;1879634;76;21106;-60
2022/02/28 02:30:31;;;;;;;38.42;14.10;;;;;;;3.90;73.92;101975.45;1879549;76;21059;-59
2022/02/28 02:33:00;;;;;;;45.88;14.80;;;;;;;3.89;73.98;101972.39;1879622;76;21109;-59
2022/02/28 02:35:31;;;;;;;45.03;14.78;;;;;;;3.88;74.02;101977.18;1879554;75;21051;-60
2022/02/28 02:38:00;;;;;;;51.50;16.42;;;;;;;3.88;74.03;101978.48;1879791;76;21035;-60
2022/02/28 02:40:29;;;;;;;45.35;15.00;;;;;;;3.85;74.12;101978.90;1879685;75;21032;-60
2022/02/28 02:42:58;;;;;;;35.17;13.93;;;;;;;3.86;74.11;101977.16;1879659;76;21079;-60
2022/02/28 02:45:28;;;;;;;46.70;14.58;;;;;;;3.86;74.09;101971.51;1879496;75;21486;-60
2022/02/28 02:47:56;;;;;;;35.73;13.48;;;;;;;3.86;74.11;101966.73;1879407;76;21160;-59
2022/02/28 02:50:25;;;;;;;34.00;13.88;;;;;;;3.85;74.11;101972.39;1879716;76;21515;-61
2022/02/28 02:52:54;;;;;;;35.95;15.23;;;;;;;3.84;74.12;101974.53;1879753;75;21016;-60
2022/02/28 02:55:23;;;;;;;35.88;13.55;;;;;;;3.83;74.11;101975.38;1879459;76;21502;-60
2022/02/28 02:57:52;;;;;;;37.78;14.47;;;;;;;3.86;74.11;101980.62;1879583;75;21063;-60
2022/02/28 03:00:21;;;;;;;43.30;14.18;;;;;;;3.88;74.09;101979.78;1879439;76;21068;-62
2022/02/28 03:02:51;;;;;;;39.15;15.23;;;;;;;3.88;74.08;101978.48;1866819;76;21043;-60
2022/02/28 03:05:21;;;;;;;34.27;13.85;;;;;;;3.86;74.07;101969.34;1879581;76;21063;-59
2022/02/28 03:07:50;;;;;;;32.63;13.10;;;;;;;3.85;74.09;101960.66;1879693;76;21125;-59
2022/02/28 03:10:20;;;;;;;26.68;11.10;;;;;;;3.84;74.12;101952.39;1879682;75;21455;-59
2022/02/28 03:12:49;;;;;;;30.88;12.10;;;;;;;3.82;74.18;101948.03;1888001;76;21068;-59
2022/02/28 03:15:17;;;;;;;36.95;11.93;;;;;;;3.79;74.18;101947.56;1893984;76;21185;-60
2022/02/28 03:17:46;;;;;;;26.85;10.63;;;;;;;3.78;74.20;101945.83;1914538;74;21501;-59
2022/02/28 03:20:15;;;;;;;31.90;12.23;;;;;;;3.78;74.19;101943.23;1924334;74;21035;-59
2022/02/28 03:22:44;;;;;;;31.48;13.22;;;;;;;3.77;74.23;101944.52;1924300;74;21149;-60
2022/02/28 03:25:14;;;;;;;36.65;13.68;;;;;;;3.75;74.28;101947.54;1924313;74;21145;-59
2022/02/28 03:27:45;;;;;;;38.13;13.68;;;;;;;3.74;74.29;101950.55;1923250;74;21531;-59
2022/02/28 03:30:14;;;;;;;28.35;10.95;;;;;;;3.74;74.37;101954.89;1924428;74;21745;-59
2022/02/28 03:32:43;;;;;;;33.90;13.28;;;;;;;3.70;74.43;101952.69;1924324;74;21759;-60
2022/02/28 03:35:13;;;;;;;26.77;10.78;;;;;;;3.68;74.46;101955.72;1924419;74;21540;-61
2022/02/28 03:37:43;;;;;;;31.95;12.63;;;;;;;3.67;74.49;101960.06;1924354;74;21058;-62
2022/02/28 03:40:13;;;;;;;31.52;13.58;;;;;;;3.66;74.52;101963.95;1924321;74;21106;-60
2022/02/28 03:42:43;;;;;;;37.13;14.05;;;;;;;3.65;74.56;101962.19;1924454;74;21011;-60
2022/02/28 03:45:12;;;;;;;36.13;12.60;;;;;;;3.65;74.53;101960.89;1924329;74;21063;-60
2022/02/28 03:47:41;;;;;;;27.35;11.10;;;;;;;3.66;74.54;101961.34;1924293;74;21122;-60
2022/02/28 03:50:28;;;;;;;31.50;11.90;;;;;;;3.65;74.57;101956.98;1924207;74;21216;-59
2022/02/28 03:52:58;;;;;;;32.10;11.88;;;;;;;3.63;74.60;101959.60;1924288;74;21092;-58
2022/02/28 03:55:31;;;;;;;31.23;12.30;;;;;;;3.62;74.65;101954.38;1924555;74;21082;-58
2022/02/28 03:58:00;;;;;;;24.85;10.03;;;;;;;3.63;74.65;101957.40;1924363;74;21128;-59
2022/02/28 04:00:31;;;;;;;28.27;10.25;;;;;;;3.61;74.71;101959.13;1923973;74;21537;-58
2022/02/28 04:02:59;;;;;;;30.32;13.10;;;;;;;3.60;74.73;101957.39;1924331;74;21019;-58
2022/02/28 04:05:28;;;;;;;30.48;13.72;;;;;;;3.60;74.71;101955.66;1924419;74;21051;-61
2022/02/28 04:07:58;;;;;;;26.15;10.80;;;;;;;3.61;74.72;101965.63;1924483;74;21034;-60
2022/02/28 04:10:27;;;;;;;25.77;11.28;;;;;;;3.61;74.74;101964.33;1924356;74;21071;-62
2022/02/28 04:12:55;;;;;;;28.83;11.90;;;;;;;3.60;74.79;101966.52;1919980;74;21079;-61
2022/02/28 04:15:24;;;;;;;33.88;12.18;;;;;;;3.57;74.87;101963.42;1911756;75;21070;-61
2022/02/28 04:17:53;;;;;;;30.15;10.23;;;;;;;3.57;74.88;101972.98;1888759;75;21035;-61
2022/02/28 04:20:24;;;;;;;35.48;13.20;;;;;;;3.57;74.88;101963.87;1878419;76;21525;-61
2022/02/28 04:22:53;;;;;;;32.25;12.88;;;;;;;3.57;74.88;101963.87;1879513;76;21064;-60
2022/02/28 04:25:22;;;;;;;29.50;11.68;;;;;;;3.55;74.94;101968.19;1879597;76;21494;-61
2022/02/28 04:27:53;;;;;;;34.15;13.70;;;;;;;3.56;74.90;101969.52;1879355;75;21112;-62
2022/02/28 04:30:23;;;;;;;27.62;11.90;;;;;;;3.56;75.00;101976.02;1879519;75;21532;-63
2022/02/28 04:32:52;;;;;;;29.63;12.40;;;;;;;3.57;75.00;101972.98;1879606;76;21031;-61
2022/02/28 04:35:21;;;;;;;43.05;15.78;;;;;;;3.57;75.02;101982.09;1879492;76;21039;-63
2022/02/28 04:37:52;;;;;;;28.23;9.53;;;;;;;3.57;75.04;101982.09;1879074;76;21100;-64
2022/02/28 04:40:20;;;;;;;42.00;14.43;;;;;;;3.58;75.08;101982.52;1879467;76;21109;-59
2022/02/28 04:42:49;;;;;;;40.73;14.45;;;;;;;3.58;75.08;101982.12;1879469;76;21063;-57
2022/02/28 04:45:19;;;;;;;39.03;14.33;;;;;;;3.58;75.18;101983.42;1879474;76;21553;-60
2022/02/28 04:47:48;;;;;;;35.13;14.23;;;;;;;3.57;75.23;101981.66;1879529;76;21114;-60
2022/02/28 04:50:34;;;;;;;34.63;12.65;;;;;;;3.59;75.19;101983.84;1877106;76;21181;-56
2022/02/28 04:53:03;;;;;;;36.75;13.40;;;;;;;3.62;75.16;101981.72;1877920;76;21104;-59
2022/02/28 04:55:34;;;;;;;38.83;14.45;;;;;;;3.64;75.11;101986.52;1877629;76;21475;-59
2022/02/28 04:58:03;;;;;;;33.35;13.03;;;;;;;3.67;75.05;101985.22;1877609;76;21032;-59
2022/02/28 05:00:36;;;;;;;37.50;14.85;;;;;;;3.70;75.04;101985.69;1876065;76;21178;-60
2022/02/28 05:03:05;;;;;;;37.80;13.35;;;;;;;3.72;74.99;101989.19;1877702;75;21036;-60
2022/02/28 05:05:36;;;;;;;40.55;13.43;;;;;;;3.74;74.99;101990.93;1877531;76;21526;-60
2022/02/28 05:08:05;;;;;;;41.30;15.80;;;;;;;3.76;74.95;101987.94;1877608;75;21466;-60
2022/02/28 05:10:34;;;;;;;35.52;14.05;;;;;;;3.78;74.96;101982.31;1877768;76;21029;-60
2022/02/28 05:13:05;;;;;;;50.03;13.90;;;;;;;3.80;74.98;101987.10;1880254;75;21092;-62
2022/02/28 05:15:34;;;;;;;20.88;8.88;;;;;;;3.82;74.96;101991.89;1915463;75;21016;-62
2022/02/28 05:18:03;;;;;;;42.67;15.20;;;;;;;3.81;75.02;101988.83;1882199;75;21489;-61
2022/02/28 05:20:32;;;;;;;31.60;12.47;;;;;;;3.79;75.09;101981.43;1873425;76;21126;-62
2022/02/28 05:23:01;;;;;;;36.17;13.15;;;;;;;3.84;75.04;101983.66;1873387;76;21067;-61
2022/02/28 05:25:30;;;;;;;36.98;14.23;;;;;;;3.88;74.99;101981.09;1873375;76;21051;-62
2022/02/28 05:27:59;;;;;;;34.20;12.98;;;;;;;3.88;75.00;101981.09;1873465;76;21119;-59
2022/02/28 05:30:28;;;;;;;45.52;14.87;;;;;;;3.91;75.00;101975.87;1873263;76;21414;-59
2022/02/28 05:32:58;;;;;;;34.00;13.65;;;;;;;3.91;75.04;101977.19;1873224;76;21178;-58
2022/02/28 05:35:29;;;;;;;31.55;12.80;;;;;;;3.93;75.06;101985.87;1872842;76;21125;-58
2022/02/28 05:38:06;;;;;;;45.12;15.50;;;;;;;3.96;75.00;101975.49;1867700;76;21162;-58
2022/02/28 05:40:38;;;;;;;41.00;14.95;;;;;;;3.98;74.98;101981.59;1873220;76;21096;-58
2022/02/28 05:43:08;;;;;;;57.65;21.40;;;;;;;4.02;74.94;101979.44;1873269;76;21149;-59
2022/02/28 05:45:37;;;;;;;29.75;12.47;;;;;;;4.07;74.88;101981.66;1873425;76;21071;-58
2022/02/28 05:48:23;;;;;;;40.03;15.83;;;;;;;4.08;74.87;101978.20;1842028;78;21508;-58
2022/02/28 05:50:52;;;;;;;36.83;13.20;;;;;;;4.10;74.82;101979.09;1863258;76;21560;-59
2022/02/28 05:53:21;;;;;;;40.60;15.48;;;;;;;4.11;74.84;101975.60;1873438;76;21125;-59
2022/02/28 05:55:49;;;;;;;31.87;13.55;;;;;;;4.14;74.84;101982.16;1873543;76;21110;-59
2022/02/28 05:58:18;;;;;;;33.65;13.20;;;;;;;4.17;74.78;101982.19;1873431;76;21138;-60
2022/02/28 06:00:47;;;;;;;37.42;15.38;;;;;;;4.19;74.74;101983.50;1873421;76;21482;-60
2022/02/28 06:03:16;;;;;;;34.60;13.95;;;;;;;4.19;74.73;101981.77;1873421;76;21036;-60
2022/02/28 06:05:44;;;;;;;35.75;13.20;;;;;;;4.21;74.72;101985.25;1873409;76;21091;-62
2022/02/28 06:08:13;;;;;;;83.80;27.73;;;;;;;4.20;74.71;101986.09;1873378;76;21044;-61
2022/02/28 06:10:42;;;;;;;40.73;11.88;;;;;;;4.21;74.68;101981.34;1873361;76;21125;-60
2022/02/28 06:13:11;;;;;;;43.92;15.25;;;;;;;4.21;74.70;101978.73;1873443;76;21040;-61
2022/02/28 06:15:41;;;;;;;30.05;11.88;;;;;;;4.21;74.74;101977.43;1876916;76;21134;-60
2022/02/28 06:18:11;;;;;;;33.67;12.18;;;;;;;4.25;74.73;101977.88;1877686;76;21107;-61
2022/02/28 06:20:41;;;;;;;32.85;12.30;;;;;;;4.28;74.69;101976.16;1877553;76;21150;-61
2022/02/28 06:23:14;;;;;;;30.43;12.15;;;;;;;4.31;74.63;101975.75;1877720;76;21149;-60
2022/02/28 06:25:42;;;;;;;37.42;13.65;;;;;;;4.32;74.61;101971.43;1877675;76;21121;-61
2022/02/28 06:28:13;;;;;;;37.03;12.23;;;;;;;4.31;74.61;101970.53;1877240;75;21467;-60
2022/02/28 06:30:42;;;;;;;44.93;14.78;;;;;;;4.35;74.57;101970.13;1877801;76;21106;-62
2022/02/28 06:33:11;;;;;;;35.40;13.25;;;;;;;4.36;74.54;101971.88;1877619;76;21593;-60
2022/02/28 06:35:40;;;;;;;33.88;11.53;;;;;;;4.40;74.54;101969.73;1877669;76;21051;-61
2022/02/28 06:38:09;;;;;;;38.25;12.00;;;;;;;4.40;74.50;101973.20;1877769;76;21138;-60
2022/02/28 06:40:38;;;;;;;42.50;14.53;;;;;;;4.44;74.48;101970.18;1877829;76;21032;-60
2022/02/28 06:43:07;;;;;;;33.25;13.18;;;;;;;4.42;74.46;101972.77;1877804;76;21036;-60
2022/02/28 06:45:36;;;;;;;34.92;13.00;;;;;;;4.49;74.41;101966.31;1877592;75;21036;-61
2022/02/28 06:48:05;;;;;;;22.73;9.40;;;;;;;4.49;74.31;101960.66;1877723;76;21032;-60
2022/02/28 06:50:34;;;;;;;29.60;10.82;;;;;;;4.51;74.24;101965.44;1877811;76;21106;-60
2022/02/28 06:53:03;;;;;;;38.73;14.38;;;;;;;4.53;74.22;101966.77;1877681;76;21344;-61
2022/02/28 06:55:32;;;;;;;34.83;12.93;;;;;;;4.57;74.20;101963.30;1877647;76;21126;-63
2022/02/28 06:58:01;;;;;;;32.88;13.62;;;;;;;4.61;74.12;101960.73;1877585;76;21474;-62
2022/02/28 07:00:29;;;;;;;41.30;13.90;;;;;;;4.66;74.05;101958.13;1877707;76;21024;-63
2022/02/28 07:03:07;;;;;;;35.92;13.68;;;;;;;4.72;73.95;101962.50;1877651;75;21104;-59
2022/02/28 07:05:37;;;;;;;40.52;14.38;;;;;;;4.71;73.89;101958.16;1877697;75;20996;-62
2022/02/28 07:08:08;;;;;;;33.75;11.28;;;;;;;4.73;73.91;101964.27;1877951;76;21017;-62
2022/02/28 07:10:37;;;;;;;27.37;11.38;;;;;;;4.74;73.88;101956.86;1872866;76;21067;-60
2022/02/28 07:13:06;;;;;;;31.77;10.78;;;;;;;4.74;73.83;101960.77;1872731;75;21074;-61
2022/02/28 07:15:35;;;;;;;35.03;9.50;;;;;;;4.74;73.84;101963.38;1890574;75;21146;-59
2022/02/28 07:18:04;;;;;;;29.55;10.93;;;;;;;4.74;73.82;101963.38;1905574;75;21064;-60
2022/02/28 07:20:33;;;;;;;35.48;12.60;;;;;;;4.71;73.88;101961.64;1905580;75;21439;-62
2022/02/28 07:23:02;;;;;;;33.70;12.80;;;;;;;4.73;73.89;101960.34;1903789;75;21114;-63
2022/02/28 07:25:32;;;;;;;33.10;13.00;;;;;;;4.72;73.89;101960.79;1905638;75;21451;-61
2022/02/28 07:28:00;;;;;;;30.57;11.48;;;;;;;4.75;73.90;101958.17;1905635;75;21478;-61
2022/02/28 07:30:30;;;;;;;36.75;14.07;;;;;;;4.79;73.85;101957.31;1905700;75;21068;-61
2022/02/28 07:32:58;;;;;;;39.23;12.45;;;;;;;4.82;73.77;101953.86;1903827;75;21528;-62
2022/02/28 07:35:27;;;;;;;29.48;10.58;;;;;;;4.84;73.75;101950.83;1905540;75;21048;-62
2022/02/28 07:37:57;;;;;;;27.62;10.75;;;;;;;4.82;73.74;101946.90;1905547;75;21205;-61
2022/02/28 07:40:25;;;;;;;25.48;10.13;;;;;;;4.81;73.73;101953.00;1905794;75;21117;-63
2022/02/28 07:42:54;;;;;;;35.20;14.78;;;;;;;4.81;73.78;101949.09;1905573;75;21087;-61
2022/02/28 07:45:22;;;;;;;31.45;12.30;;;;;;;4.83;73.84;101945.16;1883468;75;21071;-62
2022/02/28 07:47:52;;;;;;;36.40;14.15;;;;;;;4.85;73.81;101944.75;1885956;75;21028;-60
2022/02/28 07:50:21;;;;;;;26.57;9.80;;;;;;;4.80;73.81;101942.55;1866353;75;21135;-62
2022/02/28 07:52:51;;;;;;;38.02;12.75;;;;;;;4.83;73.91;101943.84;1882373;75;21032;-63
2022/02/28 07:55:20;;;;;;;32.90;12.07;;;;;;;4.89;73.89;101936.47;1865332;75;21071;-64
2022/02/28 07:57:49;;;;;;;38.05;13.80;;;;;;;4.95;73.86;101934.77;1878376;75;21019;-62
2022/02/28 08:00:18;;;;;;;36.95;12.60;;;;;;;5.03;73.77;101937.39;1905571;75;21045;-61
2022/02/28 08:02:47;;;;;;;32.35;12.30;;;;;;;5.08;73.69;101927.84;1905528;75;21017;-62
2022/02/28 08:05:16;;;;;;;29.45;11.40;;;;;;;5.12;73.58;101929.59;1905587;75;21005;-61
2022/02/28 08:07:45;;;;;;;35.40;11.48;;;;;;;5.15;73.53;101928.75;1879458;75;21125;-61
2022/02/28 08:10:14;;;;;;;36.63;13.15;;;;;;;5.16;73.48;101931.34;1873392;76;21533;-61
2022/02/28 08:12:42;;;;;;;20.90;9.15;;;;;;;5.17;73.43;101940.92;1873359;76;21565;-61
2022/02/28 08:15:12;;;;;;;41.23;14.40;;;;;;;5.18;73.39;101945.30;1873130;76;21558;-60
2022/02/28 08:17:41;;;;;;;39.85;14.55;;;;;;;5.18;73.43;101942.69;1873370;76;21561;-62
2022/02/28 08:20:10;;;;;;;27.15;9.90;;;;;;;5.20;73.40;101940.05;1873390;76;21042;-60
2022/02/28 08:22:39;;;;;;;27.13;10.75;;;;;;;5.19;73.39;101943.55;1873502;76;21048;-58
2022/02/28 08:25:08;;;;;;;26.42;10.75;;;;;;;5.17;73.39;101932.23;1873488;76;21114;-60
2022/02/28 08:27:57;;;;;;;28.55;10.70;;;;;;;5.17;73.37;101935.70;1873279;76;21117;-60
2022/02/28 08:30:26;;;;;;;27.90;11.18;;;;;;;5.18;73.42;101933.55;1989724;72;21039;-59
2022/02/28 08:32:55;;;;;;;30.10;11.48;;;;;;;5.20;73.40;101927.00;1990105;72;21007;-59
2022/02/28 08:35:24;;;;;;;20.75;8.98;;;;;;;5.23;73.41;101925.27;1990593;72;21042;-59
2022/02/28 08:37:53;;;;;;;39.67;14.55;;;;;;;5.25;73.40;101925.71;1990606;72;21516;-59
2022/02/28 08:40:21;;;;;;;24.37;10.88;;;;;;;5.27;73.41;101919.61;1990523;72;21434;-59
2022/02/28 08:42:50;;;;;;;31.42;12.23;;;;;;;5.28;73.42;101925.28;1982883;72;21047;-61
2022/02/28 08:45:19;;;;;;;34.73;12.23;;;;;;;5.28;73.39;101927.03;1955230;73;21093;-59
2022/02/28 08:47:48;;;;;;;23.12;9.68;;;;;;;5.28;73.42;101926.59;1965334;72;21035;-60
2022/02/28 08:50:17;;;;;;;24.20;11.38;;;;;;;5.28;73.38;101929.20;1954869;73;21011;-59
2022/02/28 08:52:46;;;;;;;27.37;10.00;;;;;;;5.28;73.38;101923.98;1954818;73;21122;-60
2022/02/28 08:55:15;;;;;;;22.82;10.45;;;;;;;5.32;73.42;101918.33;1954809;73;21445;-59
2022/02/28 08:57:44;;;;;;;29.85;11.93;;;;;;;5.39;73.40;101917.47;1954875;73;21055;-60
2022/02/28 09:00:14;;;;;;;29.27;12.53;;;;;;;5.44;73.30;101910.94;1954942;73;20999;-59
2022/02/28 09:02:43;;;;;;;32.93;13.03;;;;;;;5.52;73.26;101911.83;1954852;73;21046;-59
2022/02/28 09:05:11;;;;;;;28.65;10.95;;;;;;;5.61;73.12;101917.05;1954754;73;21054;-59
2022/02/28 09:07:40;;;;;;;35.00;13.45;;;;;;;5.69;72.91;101912.69;1954870;73;21035;-59
2022/02/28 09:10:10;;;;;;;25.35;10.58;;;;;;;5.76;72.83;101913.12;1954856;73;21133;-59
2022/02/28 09:12:38;;;;;;;28.47;10.65;;;;;;;5.84;72.83;101904.41;1954838;73;21023;-59
2022/02/28 09:15:09;;;;;;;45.85;10.63;;;;;;;5.83;72.62;101902.25;1954829;73;21113;-59
2022/02/28 09:17:37;;;;;;;34.48;12.78;;;;;;;5.78;72.44;101907.46;1954865;73;21031;-60
2022/02/28 09:20:08;;;;;;;25.00;11.85;;;;;;;5.75;72.45;101898.30;1954939;73;21066;-60
2022/02/28 09:22:36;;;;;;;29.65;12.07;;;;;;;5.79;72.49;101890.92;1955015;73;21027;-60
2022/02/28 09:25:06;;;;;;;30.55;11.15;;;;;;;5.87;72.41;101884.81;1955061;73;21133;-59
2022/02/28 09:27:35;;;;;;;29.90;12.95;;;;;;;5.97;72.37;101881.33;1955051;73;21035;-59
2022/02/28 09:30:05;;;;;;;27.75;11.05;;;;;;;6.04;72.22;101882.20;1957371;73;21070;-60
2022/02/28 09:32:35;;;;;;;38.28;13.65;;;;;;;6.05;72.01;101878.28;1958900;73;21106;-59
2022/02/28 09:35:04;;;;;;;30.10;13.75;;;;;;;6.05;72.01;101880.90;1958995;73;21101;-59
2022/02/28 09:37:32;;;;;;;27.00;11.95;;;;;;;6.07;72.08;101879.15;1959033;73;21096;-59
2022/02/28 09:40:01;;;;;;;25.88;10.70;;;;;;;6.12;72.04;101877.81;1959010;73;21042;-59
2022/02/28 09:42:41;;;;;;;23.67;11.90;;;;;;;6.16;71.95;101871.28;1958748;73;21084;-59
2022/02/28 09:45:28;;;;;;;20.97;9.13;;;;;;;6.23;71.82;101860.80;1958887;73;21481;-59
2022/02/28 09:48:15;;;;;;;22.02;8.28;;;;;;;6.24;71.73;101864.72;1958891;73;21083;-60
2022/02/28 09:50:48;;;;;;;31.50;12.55;;;;;;;6.24;71.72;101857.31;1881737;73;21046;-59
2022/02/28 09:53:35;;;;;;;24.15;11.45;;;;;;;6.25;71.74;101853.36;1958894;73;21046;-59
2022/02/28 09:56:25;;;;;;;22.62;10.63;;;;;;;6.25;71.89;101853.80;1958850;73;21168;-59
2022/02/28 09:59:11;;;;;;;26.75;11.18;;;;;;;6.29;71.98;101848.58;1959042;73;21517;-59
2022/02/28 10:01:45;;;;;;;25.80;10.75;;;;;;;6.36;71.89;101838.53;1958904;73;21181;-59
2022/02/28 10:04:18;;;;;;;25.35;10.28;;;;;;;6.47;71.88;101838.45;1959028;73;21007;-59
2022/02/28 10:06:47;;;;;;;28.37;11.30;;;;;;;6.53;71.76;101833.22;1959289;73;21507;-59
2022/02/28 10:09:20;;;;;;;25.55;10.93;;;;;;;6.63;71.77;101834.48;1958987;73;21438;-60
2022/02/28 10:11:49;;;;;;;;;;;;;;;6.72;71.60;101835.73;1961867;73;21055;-59
2022/02/28 10:14:18;;;;;;;15.85;7.25;;;;;;;6.72;71.30;101827.44;1958901;73;20374;-60
2022/02/28 10:16:58;;;;;;;15.63;7.75;;;;;;;6.66;71.20;101823.97;1958889;73;21528;-59
2022/02/28 10:19:25;;;;;;;23.00;9.05;;;;;;;6.60;71.11;101817.47;1956940;73;21469;-59
2022/02/28 10:21:56;;;;;;;23.02;10.00;;;;;;;6.51;71.21;101821.89;1958910;73;21051;-59
2022/02/28 10:24:30;;;;;;;26.33;10.98;;;;;;;6.48;71.40;101819.72;1958923;73;21092;-59
2022/02/28 10:27:01;;;;;;;30.37;10.45;;;;;;;6.51;71.59;101815.34;1951798;73;21099;-59
2022/02/28 10:29:46;;;;;;;24.67;9.88;;;;;;;6.57;71.54;101822.30;1950858;73;21096;-59
2022/02/28 10:32:16;;;;;;;26.20;11.08;;;;;;;6.63;71.53;101817.02;1937993;74;21084;-59
2022/02/28 10:37:54;;;;;;;17.00;7.12;;;;;;;6.63;71.41;101808.30;1864319;74;21036;-59
2022/02/28 10:40:25;;;;;;;22.25;9.28;;;;;;;6.59;71.38;101801.36;1941763;74;21482;-59
2022/02/28 10:42:55;;;;;;;16.35;6.45;;;;;;;6.55;71.47;101801.36;1940267;74;21543;-59
2022/02/28 10:45:26;;;;;;;15.00;7.22;;;;;;;6.55;71.52;101801.36;1941698;74;21107;-59
2022/02/28 10:47:55;;;;;;;18.67;8.88;;;;;;;6.58;71.54;101803.08;1941854;74;21097;-59
2022/02/28 10:50:42;;;;;;;19.70;9.35;;;;;;;6.54;71.61;101806.15;1941771;74;21490;-59
2022/02/28 10:53:15;;;;;;;12.63;6.58;;;;;;;6.52;71.64;101798.75;1941743;74;21071;-59
2022/02/28 10:55:46;;;;;;;21.23;8.73;;;;;;;6.51;71.72;101791.80;1941886;74;21029;-59
2022/02/28 10:58:18;;;;;;;17.82;7.50;;;;;;;6.53;71.66;101795.27;1941707;74;21011;-59
2022/02/28 11:00:53;;;;;;;18.50;8.90;;;;;;;6.56;71.65;101797.84;1941995;74;21454;-59
2022/02/28 11:03:23;;;;;;;13.95;5.87;;;;;;;6.57;71.56;101807.45;1941563;74;21012;-59
2022/02/28 11:05:54;;;;;;;18.70;8.03;;;;;;;6.55;71.57;101811.83;1941752;74;21097;-59
2022/02/28 11:08:25;;;;;;;18.57;7.40;;;;;;;6.54;71.51;101806.15;1941595;74;21008;-59
2022/02/28 11:10:56;;;;;;;22.17;9.13;;;;;;;6.52;71.59;101798.75;1941867;74;21035;-59
2022/02/28 11:13:25;;;;;;;19.40;9.40;;;;;;;6.53;71.63;101793.97;1941741;74;21105;-59
2022/02/28 11:15:54;;;;;;;21.10;9.65;;;;;;;6.50;71.65;101787.88;1941979;74;21043;-59
2022/02/28 11:18:23;;;;;;;22.82;10.60;;;;;;;6.47;71.65;101787.44;1941745;74;21630;-59
2022/02/28 11:20:55;;;;;;;19.87;8.58;;;;;;;6.49;71.69;101784.81;1941669;74;21537;-59
2022/02/28 11:23:23;;;;;;;30.05;10.98;;;;;;;6.47;71.62;101795.28;1941624;74;21059;-59
2022/02/28 11:25:52;;;;;;;20.08;8.70;;;;;;;6.46;71.66;101802.72;1941718;74;21024;-59
2022/02/28 11:28:21;;;;;;;22.65;9.60;;;;;;;6.46;71.66;101796.63;1941753;74;21458;-59
2022/02/28 11:30:50;;;;;;;20.50;8.38;;;;;;;6.47;71.67;101799.20;1947942;73;21144;-59
2022/02/28 11:33:19;;;;;;;18.30;9.05;;;;;;;6.48;71.66;101791.80;1958771;73;21031;-59
2022/02/28 11:35:56;;;;;;;18.52;7.45;;;;;;;6.48;71.73;101789.63;1958875;73;21062;-59